createdAt,value
2019-04-30T00:01:21.806Z,51.33
2019-04-30T00:04:05.784Z,41.87
2019-04-30T00:06:39.327Z,37.97
2019-04-30T00:09:09.736Z,39.00
2019-04-30T00:11:38.329Z,36.13
2019-04-30T00:14:07.773Z,56.50
2019-04-30T00:16:39.859Z,48.27
2019-04-30T00:19:10.669Z,40.00
2019-04-30T00:21:39.527Z,41.47
2019-04-30T00:24:10.266Z,52.10
2019-04-30T00:26:44.235Z,36.33
2019-04-30T00:29:11.176Z,38.50
2019-04-30T00:31:40.621Z,39.10
2019-04-30T00:34:10.062Z,50.23
2019-04-30T00:36:39.499Z,36.83
2019-04-30T00:39:13.284Z,38.30
2019-04-30T00:41:45.930Z,40.77
2019-04-30T00:44:11.801Z,70.43
2019-04-30T00:46:41.251Z,34.10
2019-04-30T00:49:16.053Z,40.30
2019-04-30T00:51:42.219Z,44.50
2019-04-30T00:54:11.654Z,69.93
2019-04-30T00:56:41.086Z,40.40
2019-04-30T00:59:10.736Z,31.53
2019-04-30T01:01:56.338Z,37.20
2019-04-30T01:04:44.879Z,35.40
2019-04-30T01:07:16.304Z,36.17
2019-04-30T01:09:49.451Z,40.77
2019-04-30T01:12:24.582Z,43.73
2019-04-30T01:14:49.662Z,42.03
2019-04-30T01:17:19.184Z,45.40
2019-04-30T01:19:51.140Z,41.27
2019-04-30T01:22:27.765Z,40.77
2019-04-30T01:24:51.163Z,42.47
2019-04-30T01:27:20.832Z,47.47
2019-04-30T01:29:50.456Z,41.57
2019-04-30T01:32:21.110Z,32.93
2019-04-30T01:34:53.780Z,36.00
2019-04-30T01:37:28.672Z,38.90
2019-04-30T01:39:53.031Z,44.70
2019-04-30T01:42:22.534Z,38.50
2019-04-30T01:44:53.903Z,46.97
2019-04-30T01:47:27.587Z,43.33
2019-04-30T01:49:55.790Z,46.07
2019-04-30T01:52:29.222Z,47.17
2019-04-30T01:54:58.654Z,41.40
2019-04-30T01:57:32.465Z,41.10
2019-04-30T02:00:01.676Z,41.23
2019-04-30T02:02:32.932Z,43.63
2019-04-30T02:05:02.400Z,39.77
2019-04-30T02:07:31.844Z,39.00
2019-04-30T02:10:01.337Z,40.20
2019-04-30T02:12:30.822Z,41.13
2019-04-30T02:15:00.274Z,41.93
2019-04-30T02:17:29.799Z,41.70
2019-04-30T02:19:59.475Z,47.33
2019-04-30T02:22:31.225Z,39.40
2019-04-30T02:25:00.209Z,46.00
2019-04-30T02:27:29.668Z,45.07
2019-04-30T02:30:02.532Z,43.70
2019-04-30T02:32:30.764Z,38.50
2019-04-30T02:35:09.563Z,35.20
2019-04-30T02:37:43.402Z,38.37
2019-04-30T02:40:11.755Z,41.37
2019-04-30T02:42:41.304Z,48.60
2019-04-30T02:45:11.633Z,43.27
2019-04-30T02:47:41.207Z,47.90
2019-04-30T02:50:18.091Z,41.47
2019-04-30T02:52:43.356Z,50.97
2019-04-30T02:55:19.443Z,50.50
2019-04-30T02:57:49.938Z,52.20
2019-04-30T03:00:20.800Z,48.43
2019-04-30T03:02:50.871Z,54.57
2019-04-30T03:05:20.508Z,47.37
2019-04-30T03:07:53.337Z,54.53
2019-04-30T03:10:21.158Z,46.87
2019-04-30T03:12:50.604Z,48.70
2019-04-30T03:15:22.937Z,49.83
2019-04-30T03:17:52.826Z,54.20
2019-04-30T03:20:34.751Z,57.47
2019-04-30T03:22:55.068Z,51.13
2019-04-30T03:25:24.511Z,56.43
2019-04-30T03:27:53.974Z,50.70
2019-04-30T03:30:23.397Z,49.17
2019-04-30T03:32:56.814Z,51.20
2019-04-30T03:35:24.017Z,56.97
2019-04-30T03:37:53.445Z,49.43
2019-04-30T03:40:22.897Z,65.17
2019-04-30T03:42:52.336Z,66.50
2019-04-30T03:45:21.778Z,57.47
2019-04-30T03:47:51.213Z,60.43
2019-04-30T03:50:20.874Z,56.40
2019-04-30T03:52:50.498Z,58.07
2019-04-30T03:55:20.586Z,57.67
2019-04-30T03:57:51.886Z,55.80
2019-04-30T04:00:42.485Z,49.27
2019-04-30T04:03:12.056Z,54.93
2019-04-30T04:05:43.126Z,54.50
2019-04-30T04:08:14.211Z,57.00
2019-04-30T04:10:52.976Z,53.47
2019-04-30T04:13:22.026Z,54.10
2019-04-30T04:15:51.457Z,66.73
2019-04-30T04:18:20.954Z,53.33
2019-04-30T04:21:06.508Z,54.23
2019-04-30T04:23:21.579Z,60.73
2019-04-30T04:25:51.004Z,53.67
2019-04-30T04:28:20.475Z,51.10
2019-04-30T04:30:50.561Z,52.23
2019-04-30T04:33:20.329Z,40.97
2019-04-30T04:35:51.377Z,45.67
2019-04-30T04:38:20.828Z,46.20
2019-04-30T04:40:50.493Z,42.90
2019-04-30T04:43:20.377Z,47.00
2019-04-30T04:45:50.222Z,41.30
2019-04-30T04:48:23.041Z,48.93
2019-04-30T04:50:50.895Z,49.00
2019-04-30T04:53:20.497Z,54.70
2019-04-30T04:55:50.182Z,42.00
2019-04-30T04:58:21.529Z,45.40
2019-04-30T05:00:50.810Z,45.67
2019-04-30T05:03:21.874Z,38.30
2019-04-30T05:05:51.311Z,44.07
2019-04-30T05:08:20.758Z,44.47
2019-04-30T05:10:50.198Z,37.57
2019-04-30T05:13:19.644Z,36.67
2019-04-30T05:15:51.550Z,41.37
2019-04-30T05:18:22.667Z,37.20
2019-04-30T05:20:51.446Z,35.87
2019-04-30T05:23:21.809Z,40.97
2019-04-30T05:25:51.487Z,40.80
2019-04-30T05:28:20.918Z,40.17
2019-04-30T05:30:50.364Z,35.20
2019-04-30T05:33:20.104Z,31.60
2019-04-30T05:35:49.688Z,36.73
2019-04-30T05:38:19.088Z,33.23
2019-04-30T05:40:49.596Z,33.80
2019-04-30T05:43:19.325Z,33.03
2019-04-30T05:45:49.338Z,32.97
2019-04-30T05:48:18.781Z,37.53
2019-04-30T05:50:51.454Z,33.83
2019-04-30T05:53:19.432Z,38.27
2019-04-30T05:55:49.350Z,34.00
2019-04-30T05:58:19.690Z,36.17
2019-04-30T06:00:49.959Z,31.30
2019-04-30T06:03:29.805Z,37.90
2019-04-30T06:05:50.798Z,27.33
2019-04-30T06:08:22.165Z,32.73
2019-04-30T06:10:56.047Z,28.27
2019-04-30T06:13:32.915Z,29.77
2019-04-30T06:16:08.771Z,31.67
2019-04-30T06:18:38.597Z,27.17
2019-04-30T06:21:09.166Z,30.17
2019-04-30T06:23:39.306Z,32.40
2019-04-30T06:26:12.234Z,28.83
2019-04-30T06:28:41.646Z,32.30
2019-04-30T06:31:11.212Z,27.20
2019-04-30T06:33:40.793Z,25.77
2019-04-30T06:36:11.180Z,28.40
2019-04-30T06:38:40.663Z,25.10
2019-04-30T06:41:10.099Z,29.50
2019-04-30T06:43:39.604Z,34.07
2019-04-30T06:46:09.057Z,31.57
2019-04-30T06:48:41.814Z,26.90
2019-04-30T06:51:10.504Z,30.80
2019-04-30T06:53:39.947Z,24.43
2019-04-30T06:56:09.394Z,27.30
2019-04-30T06:58:41.376Z,22.87
2019-04-30T07:01:10.030Z,25.30
2019-04-30T07:03:39.480Z,29.13
2019-04-30T07:06:08.916Z,27.67
2019-04-30T07:08:46.795Z,27.77
2019-04-30T07:11:24.336Z,26.53
2019-04-30T07:13:53.864Z,29.03
2019-04-30T07:16:23.327Z,29.27
2019-04-30T07:18:52.832Z,25.10
2019-04-30T07:21:22.350Z,25.17
2019-04-30T07:23:52.140Z,20.80
2019-04-30T07:26:24.486Z,22.77
2019-04-30T07:28:55.283Z,23.90
2019-04-30T07:31:23.979Z,31.53
2019-04-30T07:33:54.053Z,25.10
2019-04-30T07:36:23.571Z,21.83
2019-04-30T07:38:56.337Z,20.97
2019-04-30T07:41:24.418Z,23.60
2019-04-30T07:43:53.864Z,23.40
2019-04-30T07:46:23.303Z,22.43
2019-04-30T07:48:52.748Z,30.27
2019-04-30T07:51:22.922Z,21.50
2019-04-30T07:53:52.725Z,18.47
2019-04-30T07:56:27.944Z,24.73
2019-04-30T07:58:53.390Z,22.70
2019-04-30T08:01:22.845Z,22.50
2019-04-30T08:04:05.652Z,25.20
2019-04-30T08:06:35.150Z,18.87
2019-04-30T08:09:10.290Z,23.43
2019-04-30T08:11:43.315Z,19.90
2019-04-30T08:14:10.171Z,33.10
2019-04-30T08:16:39.610Z,23.97
2019-04-30T08:19:09.179Z,22.70
2019-04-30T08:21:38.851Z,25.03
2019-04-30T08:24:09.242Z,32.47
2019-04-30T08:26:39.743Z,21.97
2019-04-30T08:29:09.701Z,21.77
2019-04-30T08:31:40.877Z,23.27
2019-04-30T08:34:10.929Z,33.90
2019-04-30T08:36:40.520Z,19.83
2019-04-30T08:39:09.957Z,18.97
2019-04-30T08:41:39.413Z,22.73
2019-04-30T08:44:09.497Z,43.70
2019-04-30T08:46:38.915Z,26.47
2019-04-30T08:49:09.985Z,23.90
2019-04-30T08:51:40.386Z,25.10
2019-04-30T08:54:10.075Z,38.30
2019-04-30T08:56:39.655Z,29.37
2019-04-30T08:59:11.250Z,21.67
2019-04-30T09:01:40.396Z,22.00
2019-04-30T09:04:10.468Z,35.90
2019-04-30T09:06:40.163Z,25.87
2019-04-30T09:09:11.477Z,17.90
2019-04-30T09:11:51.856Z,23.83
2019-04-30T09:14:12.078Z,38.40
2019-04-30T09:16:41.531Z,26.70
2019-04-30T09:19:11.053Z,24.73
2019-04-30T09:21:40.476Z,24.53
2019-04-30T09:24:09.915Z,38.70
2019-04-30T09:26:39.363Z,27.23
2019-04-30T09:29:09.394Z,23.47
2019-04-30T09:31:40.843Z,28.97
2019-04-30T09:34:17.458Z,31.17
2019-04-30T09:36:41.158Z,19.83
2019-04-30T09:39:10.735Z,21.27
2019-04-30T09:41:41.192Z,18.30
2019-04-30T09:44:10.750Z,37.20
2019-04-30T09:46:40.181Z,25.33
2019-04-30T09:49:09.768Z,19.03
2019-04-30T09:51:39.983Z,23.80
2019-04-30T09:54:12.378Z,33.37
2019-04-30T09:56:40.962Z,17.30
2019-04-30T09:59:10.480Z,21.97
2019-04-30T10:01:39.913Z,20.03
2019-04-30T10:04:10.470Z,29.10
2019-04-30T10:06:40.462Z,24.03
2019-04-30T10:09:11.687Z,18.57
2019-04-30T10:11:45.552Z,19.87
2019-04-30T10:14:14.994Z,47.03
2019-04-30T10:16:44.221Z,24.47
2019-04-30T10:19:15.044Z,20.33
2019-04-30T10:21:44.494Z,22.57
2019-04-30T10:24:15.724Z,34.70
2019-04-30T10:26:45.104Z,21.90
2019-04-30T10:29:15.964Z,19.27
2019-04-30T10:31:45.728Z,31.10
2019-04-30T10:34:15.165Z,43.80
2019-04-30T10:36:44.620Z,21.07
2019-04-30T10:39:14.130Z,15.07
2019-04-30T10:41:43.575Z,21.70
2019-04-30T10:44:13.014Z,37.57
2019-04-30T10:46:42.546Z,20.63
2019-04-30T10:49:11.988Z,21.47
2019-04-30T10:51:41.422Z,21.87
2019-04-30T10:54:23.005Z,35.57
2019-04-30T10:56:42.029Z,19.77
2019-04-30T10:59:11.488Z,24.00
2019-04-30T11:01:40.928Z,25.27
2019-04-30T11:04:11.139Z,31.33
2019-04-30T11:06:40.596Z,23.47
2019-04-30T11:09:10.237Z,28.27
2019-04-30T11:11:39.826Z,21.80
2019-04-30T11:14:09.363Z,32.97
2019-04-30T11:16:38.963Z,24.10
2019-04-30T11:19:09.439Z,19.80
2019-04-30T11:21:39.211Z,22.80
2019-04-30T11:24:09.322Z,38.60
2019-04-30T11:26:40.288Z,20.10
2019-04-30T11:29:10.422Z,25.70
2019-04-30T11:31:57.030Z,22.50
2019-04-30T11:34:28.216Z,21.90
2019-04-30T11:36:57.810Z,20.87
2019-04-30T11:39:29.654Z,23.47
2019-04-30T11:41:58.714Z,23.57
2019-04-30T11:44:31.259Z,22.50
2019-04-30T11:47:15.796Z,25.40
2019-04-30T11:49:45.241Z,26.73
2019-04-30T11:52:14.743Z,27.27
2019-04-30T11:54:51.308Z,26.87
2019-04-30T11:57:15.421Z,24.50
2019-04-30T11:59:44.890Z,23.57
2019-04-30T12:02:22.931Z,21.30
2019-04-30T12:04:52.385Z,26.90
2019-04-30T12:07:33.524Z,27.23
2019-04-30T12:10:04.595Z,23.67
2019-04-30T12:12:34.029Z,30.10
2019-04-30T12:15:04.427Z,34.23
2019-04-30T12:17:33.857Z,28.60
2019-04-30T12:20:04.463Z,30.37
2019-04-30T12:22:33.917Z,28.50
2019-04-30T12:25:05.479Z,27.87
2019-04-30T12:27:35.035Z,31.00
2019-04-30T12:30:09.075Z,24.57
2019-04-30T12:32:39.290Z,31.37
2019-04-30T12:35:09.323Z,27.00
2019-04-30T12:37:39.146Z,26.57
2019-04-30T12:40:13.967Z,27.80
2019-04-30T12:42:40.474Z,23.57
2019-04-30T12:45:10.244Z,30.77
2019-04-30T12:47:41.369Z,27.30
2019-04-30T12:50:11.367Z,32.47
2019-04-30T12:52:51.365Z,36.30
2019-04-30T12:55:39.199Z,28.40
2019-04-30T12:58:09.790Z,33.07
2019-04-30T13:00:39.310Z,22.10
2019-04-30T13:03:08.764Z,25.73
2019-04-30T13:05:39.607Z,29.57
2019-04-30T13:08:10.027Z,29.10
2019-04-30T13:10:40.151Z,25.60
2019-04-30T13:13:10.395Z,34.87
2019-04-30T13:15:40.292Z,27.67
2019-04-30T13:18:09.723Z,29.93
2019-04-30T13:20:39.383Z,29.60
2019-04-30T13:23:08.895Z,29.90
2019-04-30T13:25:48.994Z,40.17
2019-04-30T13:28:14.041Z,30.50
2019-04-30T13:30:43.474Z,24.93
2019-04-30T13:33:15.771Z,22.00
2019-04-30T13:35:45.244Z,26.70
2019-04-30T13:38:22.043Z,26.97
2019-04-30T13:40:53.131Z,27.60
2019-04-30T13:43:40.269Z,22.77
2019-04-30T13:46:09.761Z,32.37
2019-04-30T13:48:39.201Z,28.50
2019-04-30T13:51:08.632Z,28.40
2019-04-30T13:53:39.508Z,30.70
2019-04-30T13:56:09.009Z,23.40
2019-04-30T13:58:38.445Z,22.10
2019-04-30T14:01:07.970Z,22.87
2019-04-30T14:03:42.042Z,23.27
2019-04-30T14:06:13.127Z,25.40
2019-04-30T14:08:48.721Z,24.40
2019-04-30T14:11:18.998Z,24.20
2019-04-30T14:13:48.526Z,26.50
2019-04-30T14:16:18.002Z,29.07
2019-04-30T14:18:48.769Z,27.77
2019-04-30T14:21:19.350Z,21.20
2019-04-30T14:23:49.538Z,26.10
2019-04-30T14:26:19.418Z,24.00
2019-04-30T14:28:49.003Z,24.43
2019-04-30T14:31:18.716Z,18.70
2019-04-30T14:33:49.552Z,20.30
2019-04-30T14:36:19.446Z,23.90
2019-04-30T14:38:48.990Z,18.77
2019-04-30T14:41:19.082Z,21.10
2019-04-30T14:43:51.201Z,17.43
2019-04-30T14:46:21.096Z,23.67
2019-04-30T14:48:55.831Z,23.67
2019-04-30T14:51:25.677Z,20.67
2019-04-30T14:53:54.893Z,19.63
2019-04-30T14:56:26.042Z,22.17
2019-04-30T14:59:13.349Z,19.87
2019-04-30T15:01:49.047Z,26.17
2019-04-30T15:04:20.339Z,17.37
2019-04-30T15:06:49.484Z,21.23
2019-04-30T15:09:19.021Z,20.27
2019-04-30T15:11:48.733Z,23.47
2019-04-30T15:14:18.149Z,17.07
2019-04-30T15:16:47.689Z,22.13
2019-04-30T15:19:17.119Z,23.00
2019-04-30T15:21:46.666Z,26.47
2019-04-30T15:24:16.436Z,34.93
2019-04-30T15:26:45.890Z,24.60
2019-04-30T15:29:16.200Z,22.80
2019-04-30T15:31:45.814Z,21.60
2019-04-30T15:34:15.338Z,38.10
2019-04-30T15:36:44.773Z,24.10
2019-04-30T15:39:14.071Z,23.50
2019-04-30T15:41:43.511Z,23.80
2019-04-30T15:44:12.958Z,36.33
2019-04-30T15:46:42.559Z,15.70
2019-04-30T15:49:12.106Z,21.60
2019-04-30T15:51:41.511Z,23.10
2019-04-30T15:54:11.036Z,30.50
2019-04-30T15:56:42.335Z,26.80
2019-04-30T15:59:16.223Z,20.50
2019-04-30T16:01:52.824Z,21.00
2019-04-30T16:04:30.526Z,19.43
2019-04-30T16:06:59.996Z,19.77
2019-04-30T16:09:34.083Z,21.90
2019-04-30T16:12:05.159Z,18.37
2019-04-30T16:14:36.248Z,27.33
2019-04-30T16:17:16.162Z,24.50
2019-04-30T16:19:45.596Z,27.57
2019-04-30T16:22:15.185Z,31.60
2019-04-30T16:24:44.620Z,23.83
2019-04-30T16:27:14.052Z,23.43
2019-04-30T16:29:43.505Z,20.97
2019-04-30T16:32:13.079Z,20.80
2019-04-30T16:34:42.538Z,28.17
2019-04-30T16:37:12.000Z,22.97
2019-04-30T16:39:41.446Z,24.37
2019-04-30T16:42:10.892Z,27.33
2019-04-30T16:44:40.395Z,22.00
2019-04-30T16:47:14.633Z,25.80
2019-04-30T16:49:41.037Z,23.30
2019-04-30T16:52:10.486Z,24.13
2019-04-30T16:54:39.927Z,24.23
2019-04-30T16:57:10.311Z,29.57
2019-04-30T16:59:41.513Z,29.00
2019-04-30T17:02:12.483Z,21.80
2019-04-30T17:04:41.685Z,20.13
2019-04-30T17:07:15.577Z,23.27
2019-04-30T17:10:02.759Z,22.73
2019-04-30T17:12:38.702Z,22.63
2019-04-30T17:15:22.211Z,21.90
2019-04-30T17:17:51.837Z,28.10
2019-04-30T17:20:21.360Z,27.93
2019-04-30T17:22:50.797Z,20.70
2019-04-30T17:25:20.232Z,23.77
2019-04-30T17:27:49.686Z,23.30
2019-04-30T17:30:19.747Z,18.10
2019-04-30T17:32:49.859Z,20.87
2019-04-30T17:35:19.520Z,24.67
2019-04-30T17:37:48.979Z,21.07
2019-04-30T17:40:19.723Z,24.70
2019-04-30T17:42:49.171Z,25.77
2019-04-30T17:45:19.841Z,23.70
2019-04-30T17:47:49.299Z,21.23
2019-04-30T17:50:18.928Z,25.47
2019-04-30T17:52:48.349Z,25.97
2019-04-30T17:55:19.515Z,24.90
2019-04-30T17:57:49.106Z,24.77
2019-04-30T18:00:22.178Z,20.00
2019-04-30T18:02:50.384Z,23.60
2019-04-30T18:05:19.837Z,23.67
2019-04-30T18:07:49.867Z,33.63
2019-04-30T18:10:20.204Z,31.90
2019-04-30T18:12:49.645Z,25.87
2019-04-30T18:15:27.570Z,23.43
2019-04-30T18:18:04.045Z,27.07
2019-04-30T18:20:39.185Z,40.40
2019-04-30T18:23:16.033Z,33.03
2019-04-30T18:25:47.110Z,28.43
2019-04-30T18:28:16.561Z,26.53
2019-04-30T18:30:46.016Z,26.60
2019-04-30T18:33:15.530Z,24.90
2019-04-30T18:35:44.978Z,28.20
2019-04-30T18:38:14.421Z,24.20
2019-04-30T18:40:43.853Z,27.50
2019-04-30T18:43:13.473Z,29.07
2019-04-30T18:45:42.966Z,31.17
2019-04-30T18:48:12.476Z,22.93
2019-04-30T18:50:42.005Z,26.30
2019-04-30T18:53:13.374Z,28.50
2019-04-30T18:55:42.800Z,25.90
2019-04-30T18:58:12.339Z,25.80
2019-04-30T19:00:43.410Z,25.50
2019-04-30T19:03:12.898Z,21.53
2019-04-30T19:05:43.989Z,25.67
2019-04-30T19:08:19.461Z,29.30
2019-04-30T19:11:06.188Z,24.23
2019-04-30T19:13:52.992Z,25.33
2019-04-30T19:16:31.358Z,24.97
2019-04-30T19:19:19.548Z,27.70
2019-04-30T19:21:49.241Z,24.67
2019-04-30T19:24:19.732Z,28.57
2019-04-30T19:26:49.243Z,24.47
2019-04-30T19:29:18.685Z,25.30
2019-04-30T19:31:49.465Z,26.67
2019-04-30T19:34:18.941Z,20.87
2019-04-30T19:36:49.269Z,26.37
2019-04-30T19:39:19.979Z,32.37
2019-04-30T19:41:49.420Z,19.60
2019-04-30T19:44:20.925Z,25.30
2019-04-30T19:46:50.461Z,25.90
2019-04-30T19:49:19.885Z,22.80
2019-04-30T19:51:49.574Z,26.70
2019-04-30T19:54:20.493Z,23.97
2019-04-30T19:56:50.252Z,26.27
2019-04-30T19:59:19.658Z,26.00
2019-04-30T20:01:49.115Z,28.70
2019-04-30T20:04:18.674Z,24.83
2019-04-30T20:06:48.728Z,26.50
2019-04-30T20:09:19.416Z,26.13
2019-04-30T20:11:49.322Z,25.20
2019-04-30T20:14:18.845Z,27.53
2019-04-30T20:16:48.678Z,23.43
2019-04-30T20:19:18.174Z,23.50
2019-04-30T20:21:51.376Z,25.07
2019-04-30T20:24:19.117Z,22.47
2019-04-30T20:26:51.639Z,22.97
2019-04-30T20:29:21.358Z,23.00
2019-04-30T20:31:50.819Z,19.17
2019-04-30T20:34:20.265Z,21.70
2019-04-30T20:36:49.717Z,24.73
2019-04-30T20:39:20.860Z,27.30
2019-04-30T20:41:51.167Z,22.50
2019-04-30T20:44:20.620Z,22.57
2019-04-30T20:46:50.051Z,25.67
2019-04-30T20:49:19.508Z,28.80
2019-04-30T20:51:55.660Z,22.20
2019-04-30T20:54:20.178Z,31.47
2019-04-30T20:56:50.994Z,23.80
2019-04-30T20:59:20.592Z,24.03
2019-04-30T21:01:50.045Z,22.87
2019-04-30T21:04:20.972Z,27.43
2019-04-30T21:06:50.582Z,26.93
2019-04-30T21:09:20.023Z,20.10
2019-04-30T21:11:49.451Z,32.47
2019-04-30T21:14:19.311Z,31.20
2019-04-30T21:16:48.822Z,28.37
2019-04-30T21:19:18.500Z,32.40
2019-04-30T21:21:49.734Z,27.60
2019-04-30T21:24:19.264Z,31.30
2019-04-30T21:26:48.703Z,24.80
2019-04-30T21:29:18.861Z,24.13
2019-04-30T21:31:52.979Z,28.10
2019-04-30T21:34:31.051Z,27.03
2019-04-30T21:37:00.544Z,26.70
2019-04-30T21:39:30.056Z,23.87
2019-04-30T21:41:59.553Z,23.87
2019-04-30T21:44:29.053Z,28.37
2019-04-30T21:46:58.579Z,24.00
2019-04-30T21:49:28.060Z,29.37
2019-04-30T21:51:57.492Z,26.27
2019-04-30T21:54:28.304Z,28.80
2019-04-30T21:56:58.105Z,30.83
2019-04-30T21:59:30.144Z,23.37
2019-04-30T22:01:58.813Z,24.83
2019-04-30T22:04:28.241Z,20.83
2019-04-30T22:06:59.527Z,23.77
2019-04-30T22:09:29.037Z,32.07
2019-04-30T22:11:59.219Z,23.43
2019-04-30T22:14:28.704Z,24.30
2019-04-30T22:16:59.430Z,30.83
2019-04-30T22:19:29.127Z,32.63
2019-04-30T22:21:59.456Z,27.27
2019-04-30T22:24:30.564Z,24.17
2019-04-30T22:27:00.082Z,32.73
2019-04-30T22:29:39.047Z,24.67
2019-04-30T22:32:00.790Z,24.23
2019-04-30T22:34:30.232Z,26.47
2019-04-30T22:36:59.680Z,27.10
2019-04-30T22:39:30.818Z,24.33
2019-04-30T22:42:29.597Z,25.37
2019-04-30T22:44:59.395Z,26.13
2019-04-30T22:47:28.969Z,27.20
2019-04-30T22:49:58.406Z,24.20
2019-04-30T22:52:27.923Z,30.20
2019-04-30T22:54:57.358Z,25.17
2019-04-30T22:57:26.781Z,34.53
2019-04-30T22:59:56.228Z,23.10
2019-04-30T23:02:45.174Z,24.10
2019-04-30T23:05:15.825Z,29.70
2019-04-30T23:07:45.262Z,34.90
2019-04-30T23:10:16.310Z,34.57
2019-04-30T23:12:46.033Z,34.07
2019-04-30T23:15:17.659Z,41.87
2019-04-30T23:17:47.105Z,32.07
2019-04-30T23:20:16.603Z,36.47
2019-04-30T23:22:46.100Z,33.43
2019-04-30T23:25:15.607Z,29.07
2019-04-30T23:27:45.035Z,25.93
2019-04-30T23:30:14.697Z,26.87
2019-04-30T23:32:44.358Z,20.90
2019-04-30T23:35:13.938Z,22.97
2019-04-30T23:37:43.471Z,24.40
2019-04-30T23:40:43.058Z,27.80
2019-04-30T23:43:12.506Z,30.30
2019-04-30T23:45:41.937Z,29.50
2019-04-30T23:48:11.377Z,26.20
2019-04-30T23:50:40.816Z,25.77
2019-04-30T23:53:10.549Z,30.80
2019-04-30T23:55:40.562Z,24.93
2019-04-30T23:58:10.060Z,28.13
